createdAt,value
2022-08-26T00:02:58.159Z,20.30
2022-08-26T00:08:02.678Z,20.20
2022-08-26T00:13:09.356Z,20.10
2022-08-26T00:18:21.929Z,20.10
2022-08-26T00:23:28.950Z,20.00
2022-08-26T00:28:34.467Z,19.90
2022-08-26T00:33:40.914Z,19.90
2022-08-26T00:38:45.748Z,19.80
2022-08-26T00:43:51.838Z,19.70
2022-08-26T00:49:11.886Z,19.70
2022-08-26T00:54:20.100Z,19.80
2022-08-26T00:59:26.513Z,19.70
2022-08-26T01:04:36.758Z,19.60
2022-08-26T01:09:41.009Z,19.60
2022-08-26T01:14:47.174Z,19.60
2022-08-26T01:20:04.889Z,19.50
2022-08-26T01:25:11.562Z,19.50
2022-08-26T01:30:16.117Z,19.40
2022-08-26T01:35:21.376Z,19.30
2022-08-26T01:40:33.475Z,19.20
2022-08-26T01:45:42.098Z,19.20
2022-08-26T01:50:47.890Z,19.10
2022-08-26T01:56:00.001Z,19.00
2022-08-26T02:01:04.834Z,19.00
2022-08-26T02:06:10.355Z,18.90
2022-08-26T02:11:18.399Z,18.80
2022-08-26T02:16:27.954Z,18.80
2022-08-26T02:21:33.500Z,18.70
2022-08-26T02:26:39.636Z,18.70
2022-08-26T02:31:43.913Z,18.70
2022-08-26T02:36:49.355Z,18.60
2022-08-26T02:41:57.575Z,18.60
2022-08-26T02:47:02.076Z,18.50
2022-08-26T02:52:06.558Z,18.40
2022-08-26T02:57:12.547Z,18.40
2022-08-26T03:02:17.327Z,18.30
2022-08-26T03:07:21.573Z,18.20
2022-08-26T03:12:27.464Z,18.30
2022-08-26T03:17:31.612Z,18.20
2022-08-26T03:22:36.066Z,18.20
2022-08-26T03:27:41.696Z,18.20
2022-08-26T03:32:47.420Z,18.10
2022-08-26T03:37:52.159Z,18.10
2022-08-26T03:42:58.507Z,18.00
2022-08-26T03:48:05.104Z,18.00
2022-08-26T03:53:12.700Z,17.90
2022-08-26T03:58:19.022Z,17.80
2022-08-26T04:03:37.263Z,17.70
2022-08-26T04:08:41.789Z,17.70
2022-08-26T04:13:49.611Z,17.80
2022-08-26T04:18:54.078Z,17.70
2022-08-26T04:23:59.201Z,17.60
2022-08-26T04:29:13.868Z,17.70
2022-08-26T04:34:19.312Z,17.60
2022-08-26T04:39:23.687Z,17.60
2022-08-26T04:44:31.831Z,17.60
2022-08-26T04:49:37.157Z,17.70
2022-08-26T04:54:42.140Z,17.60
2022-08-26T04:59:47.863Z,17.60
2022-08-26T05:04:53.762Z,17.60
2022-08-26T05:09:58.237Z,17.70
2022-08-26T05:15:04.336Z,17.80
2022-08-26T05:20:10.883Z,18.00
2022-08-26T05:25:16.037Z,18.20
2022-08-26T05:30:25.514Z,18.30
2022-08-26T05:35:33.983Z,18.50
2022-08-26T05:40:42.224Z,18.80
2022-08-26T05:45:51.389Z,19.00
2022-08-26T05:50:55.767Z,19.20
2022-08-26T05:56:00.687Z,19.30
2022-08-26T06:01:10.308Z,19.50
2022-08-26T06:06:20.221Z,19.90
2022-08-26T06:11:33.456Z,20.20
2022-08-26T06:16:43.851Z,20.70
2022-08-26T06:21:54.904Z,21.20
2022-08-26T06:27:02.235Z,21.80
2022-08-26T06:32:08.772Z,22.40
2022-08-26T06:37:13.239Z,22.70
2022-08-26T06:42:17.797Z,22.90
2022-08-26T06:47:23.956Z,23.30
2022-08-26T06:52:29.154Z,23.80
2022-08-26T06:57:34.791Z,23.70
2022-08-26T07:02:46.921Z,24.00
2022-08-26T07:07:52.425Z,24.00
2022-08-26T07:12:56.864Z,24.20
2022-08-26T07:18:02.948Z,24.40
2022-08-26T07:23:11.869Z,24.60
2022-08-26T07:28:17.266Z,25.20
2022-08-26T07:33:23.190Z,26.40
2022-08-26T07:38:27.895Z,27.50
2022-08-26T07:43:36.876Z,28.30
2022-08-26T07:48:46.199Z,28.60
2022-08-26T07:53:52.540Z,28.80
2022-08-26T07:58:57.504Z,29.00
2022-08-26T08:04:04.596Z,29.30
2022-08-26T08:09:09.359Z,29.70
2022-08-26T08:14:14.334Z,29.60
2022-08-26T08:19:19.877Z,30.10
2022-08-26T08:24:26.051Z,30.60
2022-08-26T08:29:31.256Z,30.70
2022-08-26T08:34:37.674Z,31.00
2022-08-26T08:39:42.346Z,31.60
2022-08-26T08:44:53.448Z,32.20
2022-08-26T08:50:07.672Z,32.00
2022-08-26T08:55:18.198Z,31.80
2022-08-26T09:00:30.560Z,32.20
2022-08-26T09:05:43.386Z,31.80
2022-08-26T09:10:56.150Z,31.90
2022-08-26T09:16:10.369Z,32.40
2022-08-26T09:21:19.236Z,32.90
2022-08-26T09:26:30.635Z,32.70
2022-08-26T09:31:39.122Z,33.00
2022-08-26T09:36:48.547Z,32.50
2022-08-26T09:42:09.789Z,32.20
2022-08-26T09:47:14.285Z,32.20
2022-08-26T09:52:26.582Z,32.70
2022-08-26T09:57:35.016Z,33.60
2022-08-26T10:02:47.891Z,34.20
2022-08-26T10:07:55.679Z,34.00
2022-08-26T10:13:10.362Z,34.50
2022-08-26T10:18:21.361Z,35.50
2022-08-26T10:23:37.179Z,35.40
2022-08-26T10:28:52.026Z,35.50
2022-08-26T10:34:00.409Z,34.70
2022-08-26T10:39:23.920Z,34.40
2022-08-26T10:44:32.401Z,34.20
2022-08-26T10:49:38.735Z,33.60
2022-08-26T10:54:59.328Z,33.40
2022-08-26T11:00:28.828Z,35.10
2022-08-26T11:05:33.401Z,37.50
2022-08-26T11:10:59.258Z,38.90
2022-08-26T11:16:04.028Z,40.20
2022-08-26T11:22:06.210Z,41.30
2022-08-26T11:27:57.521Z,40.60
2022-08-26T11:33:03.264Z,41.30
2022-08-26T11:38:21.234Z,40.10
2022-08-26T11:43:30.267Z,40.60
2022-08-26T11:48:41.495Z,40.90
2022-08-26T11:53:47.209Z,40.80
2022-08-26T11:58:59.597Z,41.70
2022-08-26T12:04:09.110Z,41.20
2022-08-26T12:09:24.081Z,40.00
2022-08-26T12:14:28.607Z,38.70
2022-08-26T12:19:35.490Z,39.50
2022-08-26T12:24:45.844Z,40.60
2022-08-26T12:30:06.839Z,39.80
2022-08-26T12:35:18.524Z,39.70
2022-08-26T12:40:41.328Z,40.10
2022-08-26T12:45:59.917Z,40.10
2022-08-26T12:51:23.106Z,40.10
2022-08-26T12:56:33.757Z,40.00
2022-08-26T13:01:43.833Z,39.20
2022-08-26T13:07:22.840Z,38.10
2022-08-26T13:12:32.697Z,39.80
2022-08-26T13:17:39.683Z,41.40
2022-08-26T13:22:45.816Z,42.20
2022-08-26T13:27:58.311Z,41.50
2022-08-26T13:33:02.890Z,40.90
2022-08-26T13:38:14.765Z,40.20
2022-08-26T13:43:37.771Z,40.30
2022-08-26T13:48:42.040Z,41.50
2022-08-26T13:53:54.028Z,41.40
2022-08-26T13:58:59.422Z,38.10
2022-08-26T14:04:04.422Z,35.10
2022-08-26T14:09:11.622Z,33.60
2022-08-26T14:14:15.911Z,33.10
2022-08-26T14:19:20.372Z,34.30
2022-08-26T14:24:30.921Z,33.70
2022-08-26T14:29:35.789Z,34.20
2022-08-26T14:34:43.120Z,33.80
2022-08-26T14:39:49.920Z,32.70
2022-08-26T14:44:59.564Z,31.70
2022-08-26T14:50:04.397Z,31.60
2022-08-26T14:55:11.519Z,31.60
2022-08-26T15:00:16.831Z,31.40
2022-08-26T15:05:21.286Z,32.80
2022-08-26T15:10:27.544Z,34.50
2022-08-26T15:15:32.166Z,35.10
2022-08-26T15:20:46.147Z,35.00
2022-08-26T15:26:01.582Z,32.90
2022-08-26T15:31:08.159Z,30.80
2022-08-26T15:36:13.720Z,29.40
2022-08-26T15:41:30.588Z,28.90
2022-08-26T15:53:49.761Z,27.40
2022-08-26T16:00:16.834Z,27.10
2022-08-26T16:06:16.480Z,26.90
2022-08-26T16:12:13.036Z,26.70
2022-08-26T16:18:04.317Z,26.50
2022-08-26T16:24:33.220Z,26.50
2022-08-26T16:30:28.616Z,26.70
2022-08-26T16:36:34.048Z,27.70
2022-08-26T16:42:20.114Z,27.90
2022-08-26T16:48:00.831Z,28.20
2022-08-26T17:15:18.017Z,25.80
2022-08-26T17:20:25.711Z,25.50
2022-08-26T17:25:33.230Z,25.30
2022-08-26T17:30:40.325Z,25.10
2022-08-26T17:35:44.684Z,25.10
2022-08-26T17:40:52.832Z,24.90
2022-08-26T17:46:04.531Z,24.80
2022-08-26T17:51:15.214Z,24.60
2022-08-26T17:56:25.368Z,24.40
2022-08-26T18:01:31.236Z,24.20
2022-08-26T18:06:35.843Z,23.90
2022-08-26T18:11:41.233Z,23.90
2022-08-26T18:16:47.020Z,23.70
2022-08-26T18:21:51.496Z,23.40
2022-08-26T18:26:55.762Z,23.20
2022-08-26T18:32:01.575Z,23.10
2022-08-26T18:42:21.381Z,22.70
2022-08-26T18:47:27.213Z,22.60
2022-08-26T18:52:32.743Z,22.50
2022-08-26T18:57:37.370Z,22.50
2022-08-26T19:02:43.171Z,22.40
2022-08-26T19:07:56.567Z,22.30
2022-08-26T19:13:01.158Z,22.20
2022-08-26T19:18:11.328Z,22.00
2022-08-26T19:23:31.323Z,21.90
2022-08-26T19:28:37.651Z,21.70
2022-08-26T19:33:45.550Z,21.70
2022-08-26T19:38:51.231Z,21.60
2022-08-26T19:43:58.693Z,21.50
2022-08-26T19:49:05.643Z,21.40
2022-08-26T19:54:12.430Z,21.40
2022-08-26T19:59:17.462Z,21.40
2022-08-26T20:04:23.538Z,21.40
2022-08-26T20:09:27.968Z,21.50
2022-08-26T20:14:35.012Z,21.70
2022-08-26T20:19:58.715Z,21.70
2022-08-26T20:25:03.177Z,21.70
2022-08-26T20:30:11.250Z,21.80
2022-08-26T20:35:18.080Z,21.70
2022-08-26T20:40:22.965Z,21.60
2022-08-26T20:45:27.526Z,21.60
2022-08-26T20:50:33.922Z,21.60
2022-08-26T20:55:38.382Z,21.60
2022-08-26T21:00:43.039Z,21.50
2022-08-26T21:05:50.884Z,21.40
2022-08-26T21:10:57.972Z,21.40
2022-08-26T21:16:03.114Z,21.30
2022-08-26T21:21:10.944Z,21.10
2022-08-26T21:26:17.631Z,20.90
2022-08-26T21:31:24.901Z,20.90
2022-08-26T21:36:32.211Z,20.80
2022-08-26T21:41:36.688Z,20.50
2022-08-26T21:46:42.132Z,20.40
2022-08-26T21:51:50.717Z,20.30
2022-08-26T21:56:55.380Z,20.20
2022-08-26T22:02:00.854Z,20.00
2022-08-26T22:07:09.188Z,20.00
2022-08-26T22:12:18.032Z,19.90
2022-08-26T22:17:23.333Z,19.80
2022-08-26T22:22:29.624Z,19.70
2022-08-26T22:27:33.994Z,19.80
2022-08-26T22:32:45.781Z,19.80
2022-08-26T22:37:51.840Z,19.70
2022-08-26T22:43:00.275Z,19.70
2022-08-26T22:48:05.709Z,19.60
2022-08-26T22:53:12.011Z,19.50
2022-08-26T22:58:20.028Z,19.40
2022-08-26T23:03:25.202Z,19.40
2022-08-26T23:08:33.045Z,19.40
2022-08-26T23:13:38.420Z,19.40
2022-08-26T23:18:44.133Z,19.30
2022-08-26T23:23:50.405Z,19.30
2022-08-26T23:28:55.888Z,19.30
2022-08-26T23:34:18.122Z,19.30
2022-08-26T23:39:25.523Z,19.30
2022-08-26T23:44:30.970Z,19.20
2022-08-26T23:49:36.873Z,19.20
2022-08-26T23:54:42.774Z,19.30
2022-08-26T23:59:48.423Z,19.20
